Simonsville, Vermont
Current Conditions -  °F | °C
As of 3:18 PM on Monday 24 Nov 2014 (Local Time) from KVSF Reporting Station
Broken Clouds Broken Clouds  
Wind Chill: 62°   Ceiling: 3600
Heat Index: 62°   Visibility: 10mi
Dew Point: 57°   Wind: 13mph
Humidity: 84%   Direction: 180°S
Pressure: 29.48"   Gusts: NA
Location:  43.2811°N, 72.6352°W
Report Text: KVSF 242018Z AUTO 18011KT 10SM SCT022 SCT029 BKN036 17/14 A2948 RMK AO2 T01670139
Loading
Personal Weather Stations






























Interactive Weather Map New forecast layout! Learn more

10-Day Weather Forecast

Advertisements
Track Severe Weather on mobile